createdAt,value
2019-06-07T00:01:30.818Z,99.90
2019-06-07T00:04:01.496Z,99.90
2019-06-07T00:06:32.668Z,99.90
2019-06-07T00:09:03.351Z,99.90
2019-06-07T00:11:35.274Z,99.90
2019-06-07T00:14:06.420Z,99.90
2019-06-07T00:16:37.015Z,99.90
2019-06-07T00:19:09.533Z,99.90
2019-06-07T00:22:13.588Z,99.90
2019-06-07T00:24:14.270Z,99.90
2019-06-07T00:26:57.687Z,99.90
2019-06-07T00:29:19.584Z,99.90
2019-06-07T00:31:51.306Z,99.90
2019-06-07T00:34:23.013Z,99.90
2019-06-07T01:03:03.378Z,99.90
2019-06-07T01:05:34.348Z,99.90
2019-06-07T01:08:05.087Z,99.90
2019-06-07T01:10:52.939Z,99.90
2019-06-07T01:13:08.412Z,99.90
2019-06-07T01:15:39.106Z,99.90
2019-06-07T01:18:37.028Z,99.90
2019-06-07T01:20:41.841Z,99.90
2019-06-07T01:23:57.949Z,99.90
2019-06-07T01:25:45.077Z,99.90
2019-06-07T01:28:16.654Z,99.90
2019-06-07T01:31:03.636Z,99.90
2019-06-07T01:33:50.384Z,99.90
2019-06-07T01:36:06.899Z,99.90
2019-06-07T01:38:38.283Z,99.90
2019-06-07T01:41:09.348Z,99.90
2019-06-07T01:43:39.916Z,99.90
2019-06-07T01:46:10.789Z,99.90
2019-06-07T01:48:49.503Z,99.90
2019-06-07T01:51:14.805Z,99.90
2019-06-07T01:53:46.040Z,99.90
2019-06-07T01:56:18.908Z,99.90
2019-06-07T01:58:49.454Z,99.90
2019-06-07T02:01:21.693Z,99.90
2019-06-07T02:03:53.278Z,99.90
2019-06-07T02:06:27.921Z,99.90
2019-06-07T02:08:56.745Z,99.90
2019-06-07T02:11:29.420Z,99.90
2019-06-07T02:14:00.486Z,99.90
2019-06-07T02:16:32.598Z,99.90
2019-06-07T02:19:04.108Z,99.90
2019-06-07T02:21:34.927Z,99.90
2019-06-07T02:24:05.913Z,99.90
2019-06-07T02:26:37.287Z,99.90
2019-06-07T02:29:08.587Z,99.90
2019-06-07T02:31:40.028Z,99.90
2019-06-07T02:34:11.185Z,99.90
2019-06-07T02:36:41.957Z,99.90
2019-06-07T02:39:12.273Z,99.90
2019-06-07T02:41:43.321Z,99.90
2019-06-07T02:44:14.425Z,99.90
2019-06-07T02:46:49.510Z,99.90
2019-06-07T02:49:17.987Z,99.90
2019-06-07T02:51:49.360Z,99.90
2019-06-07T02:54:19.762Z,99.90
2019-06-07T02:56:58.030Z,99.90
2019-06-07T02:59:46.879Z,99.90
2019-06-07T03:01:57.822Z,99.90
2019-06-07T03:04:36.812Z,99.90
2019-06-07T03:07:04.449Z,99.90
2019-06-07T03:09:37.215Z,99.90
2019-06-07T03:12:09.605Z,99.90
2019-06-07T03:14:40.247Z,99.90
2019-06-07T03:17:52.468Z,99.90
2019-06-07T03:20:24.176Z,99.90
2019-06-07T03:22:55.234Z,99.90
2019-06-07T03:25:28.207Z,99.90
2019-06-07T03:27:59.638Z,99.90
2019-06-07T03:30:52.137Z,99.90
2019-06-07T03:33:03.144Z,99.90
2019-06-07T03:35:35.288Z,99.90
2019-06-07T03:38:06.830Z,99.90
2019-06-07T03:40:39.954Z,99.90
2019-06-07T03:43:10.512Z,99.90
2019-06-07T03:45:41.840Z,99.90
2019-06-07T03:48:13.206Z,99.90
2019-06-07T03:50:44.333Z,99.90
2019-06-07T03:53:15.403Z,99.90
2019-06-07T03:55:45.774Z,99.90
2019-06-07T03:58:31.439Z,99.90
2019-06-07T04:00:49.662Z,99.90
2019-06-07T04:03:33.322Z,99.90
2019-06-07T04:05:53.802Z,99.90
2019-06-07T04:08:25.216Z,99.90
2019-06-07T04:11:00.410Z,99.90
2019-06-07T04:13:30.475Z,99.90
2019-06-07T04:16:00.772Z,99.90
2019-06-07T04:18:33.077Z,99.90
2019-06-07T04:21:03.802Z,99.90
2019-06-07T04:23:37.995Z,99.90
2019-06-07T04:26:06.948Z,99.90
2019-06-07T04:31:10.777Z,99.90
2019-06-07T04:33:43.503Z,99.90
2019-06-07T04:36:14.364Z,99.90
2019-06-07T04:38:46.363Z,99.90
2019-06-07T04:41:17.927Z,99.90
2019-06-07T04:43:49.995Z,99.90
2019-06-07T04:46:23.062Z,99.90
2019-06-07T04:48:55.003Z,99.90
2019-06-07T04:51:27.344Z,99.90
2019-06-07T04:53:58.632Z,99.90
2019-06-07T04:56:30.068Z,99.90
2019-06-07T04:59:02.365Z,99.90
2019-06-07T05:01:34.892Z,99.90
2019-06-07T05:04:06.168Z,99.90
2019-06-07T05:06:39.676Z,99.90
2019-06-07T05:09:09.749Z,99.90
2019-06-07T05:11:44.987Z,99.90
2019-06-07T05:14:12.572Z,99.90
2019-06-07T05:16:44.468Z,99.90
2019-06-07T05:19:16.598Z,99.90
2019-06-07T05:22:02.806Z,99.90
2019-06-07T05:24:25.673Z,99.90
2019-06-07T05:26:56.588Z,99.90
2019-06-07T05:29:27.255Z,99.90
2019-06-07T05:31:58.353Z,99.90
2019-06-07T05:34:28.834Z,99.90
2019-06-07T05:37:11.618Z,99.90
2019-06-07T05:39:42.439Z,99.90
2019-06-07T05:42:11.135Z,99.90
2019-06-07T05:45:11.012Z,99.90
2019-06-07T05:47:49.660Z,99.90
2019-06-07T05:52:52.353Z,99.90
2019-06-07T05:55:24.187Z,99.90
2019-06-07T05:57:55.420Z,99.90
2019-06-07T06:00:26.090Z,99.90
2019-06-07T06:03:05.724Z,99.90
2019-06-07T06:05:36.547Z,99.90
2019-06-07T06:08:04.437Z,99.90
2019-06-07T06:10:46.247Z,99.90
2019-06-07T06:13:13.809Z,99.90
2019-06-07T06:15:56.333Z,99.90
2019-06-07T06:18:16.986Z,99.90
2019-06-07T06:21:11.801Z,99.90
2019-06-07T06:23:19.893Z,99.90
2019-06-07T06:25:56.491Z,99.90
2019-06-07T06:28:27.503Z,99.90
2019-06-07T06:30:58.374Z,99.90
2019-06-07T06:33:34.440Z,99.90
2019-06-07T06:36:02.781Z,99.90
2019-06-07T06:38:33.743Z,99.90
2019-06-07T06:41:15.089Z,99.90
2019-06-07T06:43:38.583Z,99.90
2019-06-07T06:46:09.919Z,99.90
2019-06-07T06:48:47.387Z,99.90
2019-06-07T06:51:14.741Z,99.90
2019-06-07T06:53:46.894Z,99.90
2019-06-07T06:56:18.257Z,99.90
2019-06-07T06:59:28.288Z,99.90
2019-06-07T07:01:21.643Z,99.90
2019-06-07T07:04:11.276Z,99.90
2019-06-07T07:06:26.982Z,99.90
2019-06-07T07:08:59.368Z,99.90
2019-06-07T07:11:30.173Z,99.90
2019-06-07T07:14:01.399Z,99.90
2019-06-07T07:16:31.765Z,99.40
2019-06-07T07:19:02.399Z,98.40
2019-06-07T07:21:33.116Z,96.90
2019-06-07T07:24:20.258Z,96.20
2019-06-07T07:26:36.813Z,95.50
2019-06-07T07:29:07.564Z,96.40
2019-06-07T07:31:38.191Z,96.90
2019-06-07T07:36:40.633Z,91.30
2019-06-07T07:39:11.605Z,90.00
2019-06-07T07:42:04.473Z,91.20
2019-06-07T07:44:15.538Z,91.80
2019-06-07T07:46:46.604Z,91.10
2019-06-07T07:49:17.917Z,91.10
2019-06-07T07:51:49.647Z,90.20
2019-06-07T07:54:21.538Z,88.30
2019-06-07T07:56:56.070Z,86.70
2019-06-07T07:59:41.212Z,81.80
2019-06-07T08:01:58.773Z,75.20
2019-06-07T08:05:12.996Z,74.50
2019-06-07T08:07:02.429Z,68.00
2019-06-07T08:09:33.421Z,74.10
2019-06-07T08:12:04.470Z,77.20
2019-06-07T08:14:35.495Z,78.40
2019-06-07T08:17:06.432Z,79.20
2019-06-07T08:19:36.791Z,76.40
2019-06-07T08:22:07.722Z,74.40
2019-06-07T08:24:38.326Z,74.50
2019-06-07T08:27:25.306Z,70.30
2019-06-07T08:29:45.415Z,75.00
2019-06-07T08:32:14.026Z,73.50
2019-06-07T08:34:44.662Z,71.30
2019-06-07T08:37:15.623Z,66.00
2019-06-07T08:39:46.211Z,62.10
2019-06-07T08:42:22.021Z,63.10
2019-06-07T08:44:50.679Z,66.90
2019-06-07T08:47:22.422Z,74.00
2019-06-07T08:49:56.752Z,73.50
2019-06-07T08:52:25.743Z,71.20
2019-06-07T08:54:57.850Z,68.30
2019-06-07T08:57:29.149Z,66.00
2019-06-07T09:00:16.275Z,64.70
2019-06-07T09:02:34.712Z,64.50
2019-06-07T09:05:12.143Z,62.10
2019-06-07T09:07:38.400Z,63.70
2019-06-07T09:10:14.117Z,63.10
2019-06-07T09:12:43.924Z,61.70
2019-06-07T09:15:22.888Z,62.80
2019-06-07T09:18:30.370Z,66.30
2019-06-07T09:20:36.297Z,68.00
2019-06-07T09:22:59.070Z,70.20
2019-06-07T09:25:26.815Z,70.80
2019-06-07T09:28:00.715Z,73.60
2019-06-07T09:30:42.143Z,71.50
2019-06-07T09:33:13.046Z,71.00
2019-06-07T09:35:44.199Z,69.80
2019-06-07T09:38:24.911Z,70.90
2019-06-07T09:40:47.316Z,72.40
2019-06-07T09:43:59.962Z,72.30
2019-06-07T09:45:51.429Z,71.60
2019-06-07T09:49:09.139Z,71.20
2019-06-07T09:50:54.774Z,74.20
2019-06-07T09:53:25.721Z,75.60
2019-06-07T09:56:02.495Z,72.90
2019-06-07T09:58:50.993Z,72.40
2019-06-07T10:01:05.884Z,71.40
2019-06-07T10:03:34.610Z,71.50
2019-06-07T10:06:09.874Z,70.80
2019-06-07T10:09:56.994Z,71.50
2019-06-07T10:11:14.424Z,66.90
2019-06-07T10:13:44.741Z,66.30
2019-06-07T10:16:15.840Z,65.10
2019-06-07T10:18:46.784Z,68.90
2019-06-07T10:21:17.722Z,70.40
2019-06-07T10:23:48.686Z,70.50
2019-06-07T10:26:19.306Z,69.40
2019-06-07T10:28:53.374Z,68.60
2019-06-07T10:31:22.426Z,69.60
2019-06-07T10:33:52.764Z,63.50
2019-06-07T10:36:23.753Z,67.90
2019-06-07T10:38:54.429Z,67.90
2019-06-07T10:41:25.063Z,66.50
2019-06-07T10:43:56.367Z,65.90
2019-06-07T10:46:27.625Z,63.60
2019-06-07T10:48:58.323Z,63.70
2019-06-07T10:51:29.415Z,61.60
2019-06-07T10:54:00.610Z,58.70
2019-06-07T10:56:31.562Z,59.30
2019-06-07T10:59:03.116Z,61.80
2019-06-07T11:01:34.174Z,62.80
2019-06-07T11:04:05.714Z,61.00
2019-06-07T11:06:36.169Z,60.70
2019-06-07T11:09:10.015Z,59.70
2019-06-07T11:11:40.499Z,57.90
2019-06-07T11:14:12.635Z,55.60
2019-06-07T11:16:43.397Z,54.00
2019-06-07T11:19:17.655Z,53.60
2019-06-07T11:22:04.438Z,53.60
2019-06-07T11:24:35.347Z,53.40
2019-06-07T11:27:07.380Z,54.50
2019-06-07T11:29:39.063Z,55.50
2019-06-07T11:32:10.531Z,56.00
2019-06-07T11:34:41.248Z,56.90
2019-06-07T11:37:13.626Z,57.00
2019-06-07T11:39:44.239Z,58.30
2019-06-07T11:42:14.883Z,57.70
2019-06-07T11:44:57.052Z,57.70
2019-06-07T11:47:27.535Z,57.00
2019-06-07T11:49:59.478Z,53.00
2019-06-07T11:52:30.224Z,52.80
2019-06-07T11:55:00.877Z,51.90
2019-06-07T11:57:31.741Z,51.30
2019-06-07T12:00:02.121Z,48.30
2019-06-07T12:02:32.796Z,46.90
2019-06-07T12:05:03.452Z,46.10
2019-06-07T12:07:34.537Z,42.90
2019-06-07T12:10:05.189Z,42.00
2019-06-07T12:12:35.883Z,41.70
2019-06-07T12:15:06.955Z,42.40
2019-06-07T12:17:37.712Z,41.90
2019-06-07T12:20:10.782Z,41.30
2019-06-07T12:22:41.482Z,41.20
2019-06-07T12:25:12.890Z,42.30
2019-06-07T12:27:47.781Z,43.80
2019-06-07T12:30:26.078Z,46.40
2019-06-07T12:32:51.287Z,47.40
2019-06-07T12:35:21.915Z,47.10
2019-06-07T12:37:52.938Z,45.10
2019-06-07T12:40:30.573Z,45.30
2019-06-07T12:42:56.076Z,44.60
2019-06-07T12:45:43.715Z,43.40
2019-06-07T12:47:59.866Z,41.20
2019-06-07T12:50:42.799Z,44.10
2019-06-07T12:53:03.891Z,47.20
2019-06-07T12:55:34.249Z,48.40
2019-06-07T12:58:05.909Z,44.90
2019-06-07T13:00:36.245Z,42.30
2019-06-07T13:03:07.339Z,39.50
2019-06-07T13:05:38.283Z,37.70
2019-06-07T13:08:08.934Z,37.10
2019-06-07T13:10:39.777Z,35.90
2019-06-07T13:13:10.686Z,37.10
2019-06-07T13:15:41.020Z,37.70
2019-06-07T13:18:14.979Z,35.60
2019-06-07T13:20:44.036Z,35.00
2019-06-07T13:23:16.074Z,37.10
2019-06-07T13:25:47.239Z,38.00
2019-06-07T13:28:18.957Z,38.70
2019-06-07T13:30:49.829Z,36.30
2019-06-07T13:33:21.777Z,33.60
2019-06-07T13:35:52.938Z,34.80
2019-06-07T13:38:29.115Z,36.30
2019-06-07T13:40:59.815Z,36.40
2019-06-07T13:43:30.601Z,35.10
2019-06-07T13:46:01.319Z,37.20
2019-06-07T13:48:31.646Z,37.80
2019-06-07T13:51:02.966Z,35.00
2019-06-07T13:53:34.431Z,34.00
2019-06-07T13:56:05.446Z,32.90
2019-06-07T13:58:44.019Z,33.70
2019-06-07T14:01:14.715Z,34.70
2019-06-07T14:03:45.081Z,31.80
2019-06-07T14:06:16.185Z,30.40
2019-06-07T14:08:47.188Z,30.60
2019-06-07T14:11:19.532Z,29.80
2019-06-07T14:13:49.816Z,28.90
2019-06-07T14:16:20.441Z,29.00
2019-06-07T14:18:51.424Z,31.10
2019-06-07T14:21:22.586Z,31.90
2019-06-07T14:23:53.345Z,32.70
2019-06-07T14:26:25.064Z,37.00
2019-06-07T14:28:55.572Z,39.80
2019-06-07T14:31:26.341Z,44.80
2019-06-07T14:33:59.045Z,44.50
2019-06-07T14:36:31.062Z,43.70
2019-06-07T14:39:02.057Z,47.30
2019-06-07T14:41:40.262Z,46.30
2019-06-07T14:44:11.567Z,47.00
2019-06-07T14:46:44.389Z,47.20
2019-06-07T14:49:16.289Z,46.30
2019-06-07T14:51:47.580Z,47.50
2019-06-07T14:54:18.199Z,46.80
2019-06-07T14:56:48.605Z,47.90
2019-06-07T14:59:19.181Z,47.30
2019-06-07T15:01:49.960Z,47.10
2019-06-07T15:04:20.928Z,43.50
2019-06-07T15:06:52.005Z,41.40
2019-06-07T15:09:22.348Z,41.50
2019-06-07T15:11:52.703Z,43.30
2019-06-07T15:14:23.662Z,44.60
2019-06-07T15:16:54.076Z,44.80
2019-06-07T15:19:24.518Z,45.50
2019-06-07T15:21:55.610Z,43.20
2019-06-07T15:24:28.012Z,43.10
2019-06-07T15:26:59.553Z,44.00
2019-06-07T15:29:31.704Z,44.40
2019-06-07T15:32:02.253Z,43.90
2019-06-07T15:34:34.262Z,44.30
2019-06-07T15:37:05.513Z,44.10
2019-06-07T15:39:36.663Z,44.40
2019-06-07T15:42:07.271Z,43.40
2019-06-07T15:44:37.871Z,44.00
2019-06-07T15:47:08.871Z,43.70
2019-06-07T15:49:40.349Z,42.50
2019-06-07T15:52:11.102Z,42.80
2019-06-07T15:54:41.780Z,42.60
2019-06-07T15:57:12.590Z,44.70
2019-06-07T15:59:43.178Z,46.00
2019-06-07T16:02:13.879Z,45.30
2019-06-07T16:04:44.830Z,46.30
2019-06-07T16:07:15.551Z,46.20
2019-06-07T16:09:46.467Z,48.10
2019-06-07T16:12:17.123Z,48.80
2019-06-07T16:14:48.079Z,48.80
2019-06-07T16:17:19.280Z,49.30
2019-06-07T16:19:49.995Z,50.80
2019-06-07T16:22:21.108Z,48.90
2019-06-07T16:24:51.951Z,48.10
2019-06-07T16:27:22.717Z,47.40
2019-06-07T16:29:55.140Z,47.40
2019-06-07T16:32:26.286Z,46.50
2019-06-07T16:34:57.226Z,46.50
2019-06-07T16:37:28.350Z,46.80
2019-06-07T16:39:58.695Z,47.60
2019-06-07T16:42:29.730Z,47.70
2019-06-07T16:45:01.347Z,45.90
2019-06-07T16:47:32.366Z,46.20
2019-06-07T16:50:03.320Z,47.00
2019-06-07T16:52:37.264Z,47.90
2019-06-07T16:55:08.186Z,49.00
2019-06-07T16:57:39.006Z,49.50
2019-06-07T17:00:11.037Z,49.80
2019-06-07T17:02:42.396Z,49.70
2019-06-07T17:05:14.349Z,49.30
2019-06-07T17:07:46.956Z,50.30
2019-06-07T17:10:19.479Z,51.00
2019-06-07T17:12:50.921Z,51.40
2019-06-07T17:15:21.269Z,51.40
2019-06-07T17:17:52.628Z,51.60
2019-06-07T17:20:28.471Z,52.50
2019-06-07T17:23:04.012Z,52.70
2019-06-07T17:25:35.553Z,53.30
2019-06-07T17:28:06.199Z,52.20
2019-06-07T17:30:36.818Z,52.90
2019-06-07T17:33:07.497Z,53.80
2019-06-07T17:35:38.493Z,54.20
2019-06-07T17:38:11.464Z,54.50
2019-06-07T17:40:45.416Z,56.00
2019-06-07T17:43:18.452Z,56.30
2019-06-07T17:45:49.415Z,56.40
2019-06-07T17:48:23.858Z,56.70
2019-06-07T17:50:52.922Z,56.20
2019-06-07T17:53:24.049Z,57.00
2019-06-07T17:55:55.072Z,56.80
2019-06-07T17:58:25.721Z,56.60
2019-06-07T18:00:56.347Z,56.30
2019-06-07T18:03:26.969Z,55.50
2019-06-07T18:05:57.639Z,55.00
2019-06-07T18:08:30.507Z,54.60
2019-06-07T18:11:01.555Z,55.00
2019-06-07T18:13:32.174Z,55.10
2019-06-07T18:16:02.469Z,56.40
2019-06-07T18:18:33.277Z,57.20
2019-06-07T18:21:03.670Z,58.10
2019-06-07T18:23:35.026Z,58.90
2019-06-07T18:26:06.479Z,59.50
2019-06-07T18:28:36.955Z,59.70
2019-06-07T18:31:07.927Z,59.30
2019-06-07T18:33:41.125Z,59.90
2019-06-07T18:36:12.306Z,61.40
2019-06-07T18:38:43.302Z,61.50
2019-06-07T18:41:14.341Z,61.70
2019-06-07T18:43:45.442Z,62.10
2019-06-07T18:46:17.007Z,62.50
2019-06-07T18:48:48.387Z,63.20
2019-06-07T18:51:19.763Z,61.90
2019-06-07T18:53:51.640Z,61.30
2019-06-07T18:56:22.958Z,61.50
2019-06-07T18:58:53.588Z,62.30
2019-06-07T19:01:25.212Z,61.80
2019-06-07T19:03:58.141Z,62.00
2019-06-07T19:06:29.148Z,62.40
2019-06-07T19:09:00.077Z,63.20
2019-06-07T19:11:30.401Z,64.30
2019-06-07T19:14:02.012Z,64.30
2019-06-07T19:16:32.710Z,63.50
2019-06-07T19:19:03.358Z,64.80
2019-06-07T19:21:34.402Z,63.90
2019-06-07T19:24:04.831Z,64.40
2019-06-07T19:26:35.426Z,64.10
2019-06-07T19:29:06.289Z,63.10
2019-06-07T19:31:36.868Z,63.70
2019-06-07T19:34:07.218Z,63.90
2019-06-07T19:36:48.438Z,64.10
2019-06-07T19:39:11.101Z,64.90
2019-06-07T19:41:41.679Z,65.00
2019-06-07T19:44:12.837Z,65.60
2019-06-07T19:46:45.936Z,66.10
2019-06-07T19:49:16.942Z,67.60
2019-06-07T19:51:48.584Z,67.30
2019-06-07T19:54:19.639Z,66.00
2019-06-07T19:56:50.727Z,66.40
2019-06-07T19:59:22.022Z,67.10
2019-06-07T20:01:53.610Z,68.00
2019-06-07T20:04:24.288Z,67.00
2019-06-07T20:06:56.137Z,67.10
2019-06-07T20:09:26.564Z,66.40
2019-06-07T20:11:58.455Z,67.00
2019-06-07T20:14:29.826Z,68.10
2019-06-07T20:17:01.380Z,68.40
2019-06-07T20:19:31.897Z,68.00
2019-06-07T20:22:03.172Z,69.10
2019-06-07T20:24:34.285Z,68.50
2019-06-07T20:27:04.934Z,68.90
2019-06-07T20:29:35.965Z,69.30
2019-06-07T20:32:06.825Z,70.10
2019-06-07T20:34:38.346Z,70.90
2019-06-07T20:37:09.380Z,71.40
2019-06-07T20:39:40.020Z,71.70
2019-06-07T20:42:10.648Z,71.20
2019-06-07T20:44:41.697Z,71.70
2019-06-07T20:47:12.429Z,72.60
2019-06-07T20:49:43.703Z,72.30
2019-06-07T20:52:14.910Z,73.00
2019-06-07T20:54:46.267Z,73.10
2019-06-07T20:57:17.569Z,72.80
2019-06-07T20:59:47.935Z,73.40
2019-06-07T21:02:18.263Z,73.90
2019-06-07T21:04:50.737Z,74.10
2019-06-07T21:07:21.370Z,74.20
2019-06-07T21:09:52.652Z,74.10
2019-06-07T21:12:23.266Z,74.40
2019-06-07T21:14:54.095Z,73.40
2019-06-07T21:17:25.228Z,73.20
2019-06-07T21:19:55.933Z,72.70
2019-06-07T21:22:26.560Z,72.40
2019-06-07T21:24:57.559Z,73.10
2019-06-07T21:27:28.770Z,73.50
2019-06-07T21:30:01.071Z,74.30
2019-06-07T21:32:31.880Z,75.40
2019-06-07T21:35:03.757Z,75.90
2019-06-07T21:37:34.322Z,75.40
2019-06-07T21:40:06.024Z,75.70
2019-06-07T21:42:36.494Z,76.30
2019-06-07T21:45:13.626Z,76.50
2019-06-07T21:47:44.334Z,76.40
2019-06-07T21:50:15.016Z,77.30
2019-06-07T21:52:46.389Z,78.00
2019-06-07T21:55:17.941Z,77.60
2019-06-07T21:57:48.287Z,78.70
2019-06-07T22:00:23.367Z,78.80
2019-06-07T22:02:54.524Z,78.90
2019-06-07T22:05:24.828Z,78.90
2019-06-07T22:07:55.473Z,79.30
2019-06-07T22:10:26.194Z,79.20
2019-06-07T22:12:56.833Z,79.30
2019-06-07T22:15:34.067Z,79.40
2019-06-07T22:17:59.845Z,79.80
2019-06-07T22:20:30.154Z,79.80
2019-06-07T22:23:01.368Z,79.60
2019-06-07T22:25:36.608Z,79.50
2019-06-07T22:28:08.089Z,79.20
2019-06-07T22:30:38.749Z,77.90
2019-06-07T22:33:10.409Z,77.40
2019-06-07T22:35:41.251Z,78.00
2019-06-07T22:38:18.914Z,78.40
2019-06-07T22:40:49.843Z,77.90
2019-06-07T22:43:21.552Z,78.40
2019-06-07T22:45:52.640Z,78.40
2019-06-07T22:48:23.582Z,78.60
2019-06-07T22:50:54.225Z,79.20
2019-06-07T22:53:24.946Z,79.20
2019-06-07T22:56:01.933Z,79.40
2019-06-07T22:58:33.174Z,78.20
2019-06-07T23:01:04.553Z,78.40
2019-06-07T23:03:35.814Z,78.10
2019-06-07T23:06:06.924Z,77.90
2019-06-07T23:08:37.258Z,78.30
2019-06-07T23:11:09.015Z,77.30
2019-06-07T23:13:39.622Z,76.90
2019-06-07T23:16:09.932Z,76.40
2019-06-07T23:18:41.005Z,76.70
2019-06-07T23:21:11.743Z,77.30
2019-06-07T23:23:42.071Z,77.90
2019-06-07T23:26:14.131Z,78.20
2019-06-07T23:28:44.772Z,78.30
2019-06-07T23:31:16.608Z,78.80
2019-06-07T23:33:47.336Z,79.40
2019-06-07T23:36:19.264Z,80.30
2019-06-07T23:38:51.995Z,80.10
2019-06-07T23:41:22.637Z,80.70
2019-06-07T23:43:53.985Z,80.70
2019-06-07T23:46:25.315Z,80.50
2019-06-07T23:48:56.053Z,80.40
2019-06-07T23:51:27.084Z,79.10
2019-06-07T23:53:58.122Z,78.60
2019-06-07T23:56:29.022Z,78.60
2019-06-07T23:58:59.698Z,78.30
